createdAt,value
2023-03-06T08:34:22.462Z,22.10
2023-03-06T08:36:24.953Z,21.17
2023-03-06T08:38:27.339Z,25.60
2023-03-06T08:40:30.599Z,18.75
2023-03-06T08:42:33.252Z,19.83
2023-03-06T08:44:35.659Z,18.98
2023-03-06T08:46:38.305Z,19.67
2023-03-06T08:48:40.823Z,19.87
2023-03-06T08:50:43.289Z,18.85
2023-03-06T08:52:46.407Z,20.55
2023-03-06T08:54:48.798Z,19.65
2023-03-06T08:56:51.269Z,19.75
2023-03-06T08:58:55.192Z,22.73
2023-03-06T09:00:58.169Z,18.23
2023-03-06T09:03:00.828Z,20.45
2023-03-06T09:05:07.516Z,23.42
2023-03-06T09:07:09.916Z,20.58
2023-03-06T09:09:13.560Z,20.63
2023-03-06T09:11:16.472Z,20.73
2023-03-06T09:13:18.919Z,20.52
2023-03-06T09:15:22.294Z,21.13
2023-03-06T09:17:24.833Z,18.08
2023-03-06T09:19:27.264Z,22.47
2023-03-06T09:21:29.864Z,19.55
2023-03-06T09:23:33.060Z,20.80
2023-03-06T09:25:35.784Z,16.63
2023-03-06T09:27:38.214Z,18.00
2023-03-06T09:29:40.729Z,17.33
2023-03-06T09:31:43.379Z,17.80
2023-03-06T09:33:46.626Z,29.52
2023-03-06T09:35:51.229Z,18.08
2023-03-06T09:37:53.718Z,19.60
2023-03-06T09:39:56.431Z,21.60
2023-03-06T09:41:59.124Z,19.27
2023-03-06T09:44:06.087Z,23.23
2023-03-06T09:46:25.476Z,17.02
2023-03-06T09:48:58.071Z,26.55
2023-03-06T09:51:05.251Z,19.30
2023-03-06T09:53:41.263Z,17.35
2023-03-06T09:55:56.941Z,15.85
2023-03-06T09:58:21.043Z,16.60
2023-03-06T10:00:51.267Z,16.15
2023-03-06T10:03:29.838Z,15.57
2023-03-06T10:05:45.046Z,15.10
2023-03-06T10:08:00.970Z,16.33
2023-03-06T10:10:07.288Z,14.88
2023-03-06T10:12:26.224Z,15.63
2023-03-06T10:14:45.032Z,16.33
2023-03-06T10:16:48.388Z,12.10
2023-03-06T10:18:51.462Z,14.10
2023-03-06T10:21:04.745Z,12.68
2023-03-06T10:23:25.621Z,13.45
2023-03-06T10:25:53.808Z,13.83
2023-03-06T10:28:16.218Z,12.32
2023-03-06T10:30:45.893Z,13.23
2023-03-06T10:33:00.262Z,12.88
2023-03-06T10:35:06.997Z,12.30
2023-03-06T10:37:20.474Z,14.40
2023-03-06T10:39:23.778Z,12.98
2023-03-06T10:41:31.718Z,12.82
2023-03-06T10:43:36.365Z,14.25
2023-03-06T10:45:49.396Z,12.10
2023-03-06T10:48:11.043Z,11.33
2023-03-06T10:50:28.120Z,12.00
2023-03-06T10:52:33.015Z,10.50
2023-03-06T10:54:38.665Z,14.00
2023-03-06T10:56:42.740Z,11.70
2023-03-06T10:58:45.148Z,10.10
2023-03-06T11:00:47.690Z,10.18
2023-03-06T11:03:07.494Z,11.73
2023-03-06T11:05:20.896Z,12.38
2023-03-06T11:07:26.091Z,13.82
2023-03-06T11:09:28.534Z,13.40
2023-03-06T11:11:37.484Z,18.45
2023-03-06T11:13:42.937Z,13.63
2023-03-06T11:16:04.255Z,11.10
2023-03-06T11:18:10.038Z,15.65
2023-03-06T11:20:49.998Z,11.07
2023-03-06T11:23:06.263Z,10.05
2023-03-06T11:25:13.682Z,17.55
2023-03-06T11:27:24.961Z,11.35
2023-03-06T11:29:43.341Z,10.75
2023-03-06T11:32:11.812Z,9.67
2023-03-06T11:34:50.499Z,9.50
2023-03-06T11:37:13.739Z,8.77
2023-03-06T11:39:23.643Z,9.77
2023-03-06T11:42:04.340Z,9.13
2023-03-06T11:44:32.558Z,9.13
2023-03-06T11:46:38.223Z,9.57
2023-03-06T11:49:03.141Z,9.98
2023-03-06T11:51:21.640Z,9.32
2023-03-06T11:53:34.959Z,10.82
2023-03-06T11:55:45.588Z,9.50
2023-03-06T11:58:08.084Z,10.25
2023-03-06T12:00:19.093Z,8.35
2023-03-06T12:02:40.757Z,9.13
2023-03-06T12:04:46.293Z,7.90
2023-03-06T12:07:09.959Z,9.13
2023-03-06T12:09:33.730Z,10.23
2023-03-06T12:12:09.965Z,11.45
2023-03-06T12:14:40.103Z,7.38
2023-03-06T12:17:04.125Z,11.75
2023-03-06T12:19:24.727Z,14.27
2023-03-06T12:21:48.647Z,9.05
2023-03-06T12:23:55.770Z,8.18
2023-03-06T12:26:01.272Z,13.13
2023-03-06T12:28:23.190Z,6.57
2023-03-06T12:30:45.391Z,8.10
2023-03-06T12:33:07.730Z,8.25
2023-03-06T12:35:19.165Z,12.02
2023-03-06T12:37:57.012Z,9.30
2023-03-06T12:40:09.998Z,8.52
2023-03-06T12:42:26.944Z,7.17
2023-03-06T12:44:40.797Z,7.10
2023-03-06T12:46:49.731Z,7.88
2023-03-06T12:49:06.767Z,6.63
2023-03-06T12:51:13.567Z,6.47
2023-03-06T12:53:32.455Z,6.30
2023-03-06T12:55:46.738Z,10.38
2023-03-06T12:57:49.449Z,10.52
2023-03-06T12:59:52.843Z,10.43
2023-03-06T13:02:31.316Z,8.30
2023-03-06T13:04:45.661Z,7.10
2023-03-06T13:07:23.807Z,9.25
2023-03-06T13:09:43.724Z,8.43
2023-03-06T13:12:05.532Z,7.80
2023-03-06T13:14:48.749Z,7.63
2023-03-06T13:17:19.126Z,5.50
2023-03-06T13:19:24.486Z,5.20
2023-03-06T13:21:42.300Z,4.90
2023-03-06T13:23:51.584Z,5.70
2023-03-06T13:25:54.013Z,5.35
2023-03-06T13:27:56.432Z,7.80
2023-03-06T13:30:07.360Z,6.75
2023-03-06T13:32:19.122Z,5.80
2023-03-06T13:34:49.190Z,7.38
2023-03-06T13:36:51.644Z,6.95
2023-03-06T13:39:01.170Z,7.57
2023-03-06T13:41:42.770Z,6.13
2023-03-06T13:43:46.310Z,5.82
2023-03-06T13:45:49.556Z,7.18
2023-03-06T13:50:44.041Z,8.00
2023-03-06T13:53:03.780Z,10.63
2023-03-06T13:55:13.507Z,7.05
2023-03-06T13:57:44.866Z,6.03
2023-03-06T14:00:11.937Z,5.88
2023-03-06T14:02:34.595Z,6.10
2023-03-06T14:04:53.400Z,5.57
2023-03-06T14:07:28.495Z,7.03
2023-03-06T14:09:45.171Z,7.47
2023-03-06T14:11:52.203Z,7.03
2023-03-06T14:13:56.187Z,6.70
2023-03-06T14:15:58.582Z,7.00
2023-03-06T14:18:12.922Z,8.15
2023-03-06T14:20:17.300Z,8.77
2023-03-06T14:22:23.634Z,9.10
2023-03-06T14:24:38.525Z,6.70
2023-03-06T14:26:51.452Z,6.10
2023-03-06T14:28:58.503Z,5.47
2023-03-06T14:31:03.412Z,5.80
2023-03-06T14:33:12.120Z,4.72
2023-03-06T14:35:30.197Z,4.63
2023-03-06T14:37:33.852Z,4.80
2023-03-06T14:39:42.017Z,5.45
2023-03-06T14:41:44.720Z,5.05
2023-03-06T14:43:47.115Z,4.80
2023-03-06T14:45:58.044Z,5.53
2023-03-06T14:48:00.606Z,4.75
2023-03-06T14:50:25.904Z,6.88
2023-03-06T14:52:29.130Z,8.93
2023-03-06T14:54:39.546Z,13.15
2023-03-06T14:56:43.111Z,13.17
2023-03-06T14:59:05.976Z,13.35
2023-03-06T15:01:10.426Z,5.82
2023-03-06T15:03:19.565Z,5.72
2023-03-06T15:05:26.793Z,6.82
2023-03-06T15:07:31.358Z,7.53
2023-03-06T15:09:34.727Z,7.88
2023-03-06T15:11:56.614Z,9.15
2023-03-06T15:14:03.662Z,11.38
2023-03-06T15:16:25.308Z,9.00
2023-03-06T15:18:30.661Z,9.73
2023-03-06T15:20:43.783Z,12.07
2023-03-06T15:22:50.933Z,9.77
2023-03-06T15:24:53.729Z,11.98
2023-03-06T15:26:56.359Z,13.13
2023-03-06T15:29:09.069Z,12.93
2023-03-06T15:31:20.984Z,13.75
2023-03-06T15:33:25.730Z,12.48
2023-03-06T15:35:37.931Z,11.50
2023-03-06T15:37:40.659Z,9.32
2023-03-06T15:39:43.454Z,9.57
2023-03-06T15:41:45.861Z,10.07
2023-03-06T15:43:48.395Z,13.90
2023-03-06T15:45:51.468Z,12.80
2023-03-06T15:47:55.465Z,13.18
2023-03-06T15:49:57.962Z,11.90
2023-03-06T15:52:00.388Z,15.90
2023-03-06T15:54:11.910Z,17.17
2023-03-06T15:56:15.194Z,22.67
2023-03-06T15:58:21.491Z,19.40
2023-03-06T16:00:30.995Z,20.23
2023-03-06T16:02:33.617Z,19.73
2023-03-06T16:04:36.084Z,22.40
2023-03-06T16:06:38.480Z,24.70
2023-03-06T16:08:40.920Z,21.80
2023-03-06T16:10:44.813Z,20.70
2023-03-06T16:13:02.532Z,22.27
2023-03-06T16:15:06.260Z,14.07
2023-03-06T16:17:09.465Z,8.20
2023-03-06T16:19:25.399Z,8.05
2023-03-06T16:21:28.756Z,9.20
2023-03-06T16:23:31.159Z,13.68
2023-03-06T16:25:33.631Z,21.00
2023-03-06T16:27:36.056Z,14.32
2023-03-06T16:29:38.595Z,15.73
2023-03-06T16:31:41.074Z,19.90
2023-03-06T16:33:43.693Z,16.67
2023-03-06T16:35:47.337Z,10.02
2023-03-06T16:37:50.163Z,25.48
2023-03-06T16:39:52.769Z,9.27
2023-03-06T16:41:56.192Z,18.03
2023-03-06T16:43:58.760Z,24.95
2023-03-06T16:46:05.976Z,20.10
2023-03-06T16:48:11.122Z,17.02
2023-03-06T16:50:36.041Z,21.45
2023-03-06T16:52:38.522Z,17.87
2023-03-06T16:54:41.939Z,17.77
2023-03-06T16:56:46.200Z,23.25
2023-03-06T16:58:49.965Z,23.23
2023-03-06T17:00:52.445Z,22.67
2023-03-06T17:02:55.118Z,21.17
2023-03-06T17:04:57.639Z,21.40
2023-03-06T17:07:00.408Z,19.08
2023-03-06T17:09:02.867Z,19.95
2023-03-06T17:11:06.880Z,17.27
2023-03-06T17:13:10.768Z,14.87
2023-03-06T17:15:13.227Z,14.90
2023-03-06T17:17:15.688Z,11.80
2023-03-06T17:19:18.132Z,11.77
2023-03-06T17:21:20.633Z,12.63
2023-03-06T17:23:26.338Z,14.93
2023-03-06T17:25:28.825Z,14.52
2023-03-06T17:27:31.536Z,13.05
2023-03-06T17:29:34.226Z,14.85
2023-03-06T17:31:36.634Z,12.63
2023-03-06T17:33:39.173Z,16.27
2023-03-06T17:35:41.626Z,20.30
2023-03-06T17:37:44.082Z,21.38
2023-03-06T17:39:46.910Z,17.85
2023-03-06T17:41:50.080Z,19.60
2023-03-06T17:43:55.065Z,21.27
2023-03-06T17:45:57.574Z,29.08
2023-03-06T17:48:00.049Z,23.90
2023-03-06T17:50:02.604Z,30.58
2023-03-06T17:52:05.858Z,27.45
2023-03-06T17:54:08.299Z,27.80
2023-03-06T17:56:13.965Z,23.95
2023-03-06T17:58:16.520Z,21.48
2023-03-06T18:00:19.930Z,22.02
2023-03-06T18:02:22.291Z,20.33
2023-03-06T18:04:25.414Z,27.23
2023-03-06T18:06:30.288Z,31.75
2023-03-06T18:08:32.739Z,20.85
2023-03-06T18:10:35.430Z,24.92
2023-03-06T18:12:37.857Z,26.42
2023-03-06T18:14:40.305Z,26.07
2023-03-06T18:16:42.864Z,27.38
2023-03-06T18:18:45.520Z,26.73
2023-03-06T18:20:48.033Z,23.67
2023-03-06T18:22:50.448Z,24.05
2023-03-06T18:24:52.946Z,25.77
2023-03-06T18:26:55.434Z,32.38
2023-03-06T18:29:04.548Z,29.90
2023-03-06T18:31:13.646Z,30.75
2023-03-06T18:33:16.260Z,27.77
2023-03-06T18:35:18.808Z,26.43
2023-03-06T18:37:21.410Z,24.42
2023-03-06T18:39:23.755Z,23.45
2023-03-06T18:41:26.196Z,25.92
2023-03-06T18:43:28.644Z,31.25
2023-03-06T18:45:31.149Z,34.40
2023-03-06T18:47:33.830Z,41.92
2023-03-06T18:49:37.485Z,31.30
2023-03-06T18:51:41.610Z,31.38
2023-03-06T18:53:44.246Z,24.80
2023-03-06T18:55:54.307Z,24.33
2023-03-06T18:57:57.942Z,22.92
2023-03-06T19:00:00.515Z,18.13
2023-03-06T19:02:03.111Z,24.38
2023-03-06T19:04:06.054Z,22.88
2023-03-06T19:06:11.622Z,31.43
2023-03-06T19:08:15.124Z,24.58
2023-03-06T19:10:17.667Z,23.35
2023-03-06T19:12:20.277Z,28.80
2023-03-06T19:14:22.789Z,23.45
2023-03-06T19:16:27.821Z,47.13
2023-03-06T19:18:30.589Z,28.33
2023-03-06T19:20:33.004Z,26.77
2023-03-06T19:22:36.826Z,47.85
2023-03-06T19:24:39.262Z,34.45
2023-03-06T19:26:42.913Z,31.87
2023-03-06T19:28:46.240Z,35.75
2023-03-06T19:30:48.633Z,26.10
2023-03-06T19:32:51.541Z,33.35
2023-03-06T19:34:58.608Z,34.92
2023-03-06T19:37:01.119Z,35.23
2023-03-06T19:39:05.752Z,37.33
2023-03-06T19:41:13.391Z,36.65
2023-03-06T19:43:15.855Z,36.30
2023-03-06T19:45:18.716Z,36.83
2023-03-06T19:47:21.253Z,39.90
2023-03-06T19:49:23.781Z,27.48
2023-03-06T19:51:27.408Z,26.02
2023-03-06T19:53:29.980Z,26.55
2023-03-06T19:55:32.521Z,24.10
2023-03-06T19:57:35.103Z,50.40
2023-03-06T19:59:37.551Z,37.50
2023-03-06T20:01:40.505Z,43.00
2023-03-06T20:03:43.593Z,26.52
2023-03-06T20:05:47.118Z,27.70
2023-03-06T20:07:49.711Z,26.10
2023-03-06T20:09:52.526Z,31.50
2023-03-06T20:11:54.991Z,26.98
2023-03-06T20:14:01.828Z,22.65
2023-03-06T20:16:04.641Z,23.58
2023-03-06T20:18:07.222Z,25.43
2023-03-06T20:20:11.129Z,25.27
2023-03-06T20:22:13.712Z,25.58
2023-03-06T20:24:16.995Z,23.65
2023-03-06T20:26:20.224Z,23.45
2023-03-06T20:28:23.057Z,25.57
2023-03-06T20:30:31.528Z,21.88
2023-03-06T20:32:39.136Z,25.65
2023-03-06T20:34:41.893Z,28.38
2023-03-06T20:36:47.116Z,27.52
2023-03-06T20:38:50.200Z,24.23
2023-03-06T20:40:55.910Z,21.27
2023-03-06T20:42:58.282Z,21.90
2023-03-06T20:45:00.666Z,24.27
2023-03-06T20:47:03.148Z,30.90
2023-03-06T20:49:05.548Z,25.43
2023-03-06T20:51:15.261Z,21.48
2023-03-06T20:53:17.654Z,21.20
2023-03-06T20:55:20.163Z,18.65
2023-03-06T20:57:22.622Z,18.33
2023-03-06T20:59:25.209Z,15.40
2023-03-06T21:01:28.854Z,13.18
2023-03-06T21:03:31.346Z,15.38
2023-03-06T21:05:33.759Z,12.80
2023-03-06T21:07:36.170Z,12.82
2023-03-06T21:09:39.685Z,11.57
2023-03-06T21:11:42.137Z,12.18
2023-03-06T21:13:44.781Z,10.85
2023-03-06T21:15:47.680Z,12.32
2023-03-06T21:17:50.242Z,13.43
2023-03-06T21:19:52.942Z,13.27
2023-03-06T21:21:55.385Z,13.13
2023-03-06T21:23:58.189Z,12.27
2023-03-06T21:26:00.791Z,11.25
2023-03-06T21:28:03.208Z,11.23
2023-03-06T21:30:06.947Z,10.13
2023-03-06T21:32:09.304Z,10.07
2023-03-06T21:34:12.111Z,10.35
2023-03-06T21:36:14.962Z,9.77
2023-03-06T21:38:17.589Z,9.38
2023-03-06T21:40:20.136Z,9.20
2023-03-06T21:42:22.651Z,9.23
2023-03-06T21:44:25.261Z,8.80
2023-03-06T21:46:28.608Z,8.10
2023-03-06T21:48:31.062Z,6.95
2023-03-06T21:50:33.524Z,7.13
2023-03-06T21:52:36.057Z,7.07
2023-03-06T21:54:38.523Z,6.82
2023-03-06T21:56:40.915Z,6.93
2023-03-06T21:58:43.487Z,6.53
2023-03-06T22:00:45.950Z,11.57
2023-03-06T22:02:48.449Z,19.58
2023-03-06T22:04:52.613Z,27.90
2023-03-06T22:06:55.024Z,20.90
2023-03-06T22:08:59.134Z,19.63
2023-03-06T22:11:11.643Z,15.37
2023-03-06T22:13:14.124Z,21.25
2023-03-06T22:15:16.643Z,18.20
2023-03-06T22:17:19.040Z,10.27
2023-03-06T22:19:21.455Z,10.70
2023-03-06T22:21:24.500Z,6.43
2023-03-06T22:23:26.996Z,9.27
2023-03-06T22:25:31.379Z,6.95
2023-03-06T22:27:33.818Z,8.18
2023-03-06T22:29:36.324Z,5.95
2023-03-06T22:31:40.284Z,6.40
2023-03-06T22:33:43.154Z,6.93
2023-03-06T22:35:45.579Z,5.75
2023-03-06T22:37:48.035Z,6.63
2023-03-06T22:39:50.378Z,6.00
2023-03-06T22:41:55.757Z,5.90
2023-03-06T22:43:59.883Z,6.00
2023-03-06T22:46:07.114Z,6.90
2023-03-06T22:48:11.278Z,6.78
2023-03-06T22:50:13.869Z,7.00
2023-03-06T22:52:19.568Z,8.30
2023-03-06T22:54:21.965Z,9.77
2023-03-06T22:56:24.874Z,9.38
2023-03-06T22:58:34.122Z,10.07
2023-03-06T23:00:36.525Z,12.07
2023-03-06T23:02:39.062Z,12.33
2023-03-06T23:04:41.521Z,10.10
2023-03-06T23:06:44.704Z,9.48
2023-03-06T23:08:51.920Z,8.20
2023-03-06T23:10:54.309Z,7.35
2023-03-06T23:12:56.770Z,5.83
2023-03-06T23:14:59.347Z,6.18
2023-03-06T23:17:01.765Z,6.47
2023-03-06T23:19:04.525Z,5.35
2023-03-06T23:21:11.938Z,5.65
2023-03-06T23:23:14.361Z,5.87
2023-03-06T23:25:16.848Z,5.35
2023-03-06T23:27:19.668Z,5.32
2023-03-06T23:29:22.533Z,5.85
2023-03-06T23:31:29.970Z,5.88
2023-03-06T23:33:32.425Z,6.93
2023-03-06T23:35:36.035Z,6.95
2023-03-06T23:37:38.480Z,10.52
2023-03-06T23:39:40.962Z,11.38
2023-03-06T23:41:43.370Z,11.52
2023-03-06T23:43:46.961Z,13.00
2023-03-06T23:45:55.365Z,13.10
2023-03-06T23:47:57.910Z,12.52
2023-03-06T23:50:00.357Z,11.45
2023-03-06T23:52:02.848Z,11.43
2023-03-06T23:54:05.227Z,11.60
2023-03-06T23:56:08.243Z,10.57
2023-03-06T23:58:11.406Z,9.77
